Time;durP1;ratioP1;P1;durP2;ratioP2;P2;SDS_P1;SDS_P2;PMS_P1;PMS_P2;Temp;Humidity;BMP_temperature;BMP_pressure;BME280_temperature;BME280_humidity;BME280_pressure;Samples;Min_cycle;Max_cycle;Signal;HPM_P1;HPM_P2
2022/10/14 00:02:55;;;;;;;48.87;23.83;;;;;;;11.07;91.09;100844.65;5102733;57;1143432;-76
2022/10/14 00:08:00;;;;;;;44.67;25.33;;;;;;;11.05;91.43;100837.30;5039908;58;1143344;-76
2022/10/14 00:13:07;;;;;;;46.17;25.27;;;;;;;11.00;91.48;100840.27;5044954;58;1143268;-77
2022/10/14 00:18:12;;;;;;;40.17;22.62;;;;;;;10.97;91.71;100832.59;5109951;57;1143312;-77
2022/10/14 00:23:18;;;;;;;43.17;22.40;;;;;;;10.96;91.54;100832.70;5115562;57;1143277;-77
2022/10/14 00:28:24;;;;;;;42.05;22.20;;;;;;;10.97;91.66;100836.55;5135771;56;1143354;-76
2022/10/14 00:33:31;;;;;;;42.77;23.03;;;;;;;10.98;91.38;100832.95;5134124;56;1143242;-76
2022/10/14 00:38:38;;;;;;;43.53;25.20;;;;;;;11.02;91.99;100832.22;5032701;58;1143221;-76
2022/10/14 00:44:07;;;;;;;52.73;27.27;;;;;;;11.07;92.15;100828.28;5068308;57;1143226;-75
2022/10/14 00:49:20;;;;;;;44.00;24.27;;;;;;;11.06;92.13;100824.42;5081647;57;1143208;-76
2022/10/14 00:54:34;;;;;;;40.13;23.23;;;;;;;10.99;92.08;100809.98;5030363;58;1143249;-75
2022/10/14 00:59:41;;;;;;;49.43;22.80;;;;;;;10.87;91.70;100810.39;5082592;57;1143605;-75
2022/10/14 01:04:48;;;;;;;45.13;24.47;;;;;;;10.86;92.03;100813.52;5072492;57;1143230;-75
2022/10/14 01:10:04;;;;;;;49.10;26.03;;;;;;;10.87;92.14;100816.53;5002614;58;1143289;-75
2022/10/14 01:15:19;;;;;;;52.27;27.23;;;;;;;10.89;92.37;100815.09;5149487;56;1143202;-75
2022/10/14 01:21:04;;;;;;;45.60;23.73;;;;;;;10.84;92.33;100809.32;5138749;56;1143281;-76
2022/10/14 01:26:26;;;;;;;54.97;22.40;;;;;;;10.77;92.26;100805.42;5136327;56;1141253;-76
2022/10/14 01:31:36;;;;;;;50.50;24.47;;;;;;;10.74;92.29;100796.38;5133092;57;1141088;-75
2022/10/14 01:36:48;;;;;;;43.07;24.70;;;;;;;10.72;92.58;100784.59;5136428;57;1141424;-75
2022/10/14 01:42:01;;;;;;;41.13;24.23;;;;;;;10.67;92.51;100780.14;5074147;57;1141076;-76
2022/10/14 01:47:09;;;;;;;47.48;27.35;;;;;;;10.51;92.00;100782.22;5067342;57;1141177;-76
2022/10/14 01:52:26;;;;;;;40.83;22.63;;;;;;;10.37;92.41;100785.02;5049294;58;1141027;-75
2022/10/14 01:57:35;;;;;;;39.00;22.63;;;;;;;10.32;92.45;100778.73;5049892;58;1143215;-77
2022/10/14 02:02:43;;;;;;;49.83;24.27;;;;;;;10.27;92.32;100774.73;5052882;58;1143156;-75
2022/10/14 02:07:56;;;;;;;43.38;24.18;;;;;;;10.28;92.22;100788.31;4972561;59;1143075;-76
2022/10/14 02:13:25;;;;;;;54.40;27.47;;;;;;;10.02;91.72;100794.12;5143056;56;1143425;-75
2022/10/14 02:18:48;;;;;;;47.33;25.07;;;;;;;9.91;92.99;100784.31;5179554;56;1143209;-76
2022/10/14 02:24:07;;;;;;;55.47;26.33;;;;;;;9.95;93.65;100784.45;5138041;56;1141233;-76
2022/10/14 02:29:13;;;;;;;43.20;24.63;;;;;;;9.98;93.32;100785.55;5136075;57;1141126;-76
2022/10/14 02:34:22;;;;;;;46.87;24.90;;;;;;;9.99;93.88;100778.00;5138561;57;1141118;-75
2022/10/14 02:39:32;;;;;;;44.63;25.07;;;;;;;10.01;94.50;100780.06;5139097;57;1141139;-75
2022/10/14 02:44:38;;;;;;;42.60;25.70;;;;;;;9.97;94.53;100771.98;5185995;56;1143186;-75
2022/10/14 02:49:44;;;;;;;48.80;24.07;;;;;;;9.87;94.61;100773.59;5179287;56;1141183;-75
2022/10/14 02:54:51;;;;;;;42.13;22.67;;;;;;;9.81;94.71;100775.33;5138818;56;1141497;-76
2022/10/14 02:59:57;;;;;;;51.58;24.55;;;;;;;9.94;95.50;100768.70;5136212;57;1141259;-76
2022/10/14 03:05:03;;;;;;;55.70;26.27;;;;;;;10.01;95.58;100766.84;4932695;59;1141383;-75
2022/10/14 03:10:09;;;;;;;60.70;27.40;;;;;;;9.99;95.51;100766.11;5045449;57;1143297;-76
2022/10/14 03:15:16;;;;;;;42.03;24.97;;;;;;;9.96;95.57;100755.75;5098991;57;1141481;-75
2022/10/14 03:20:22;;;;;;;43.50;24.57;;;;;;;9.96;95.82;100747.83;5115085;57;1141140;-75
2022/10/14 03:25:30;;;;;;;44.47;22.63;;;;;;;9.97;95.93;100753.48;5044786;58;1141136;-76
2022/10/14 03:30:47;;;;;;;48.87;24.63;;;;;;;9.99;95.79;100752.90;5044685;57;1141285;-75
2022/10/14 03:35:54;;;;;;;46.23;24.83;;;;;;;10.02;96.28;100752.69;5044640;58;1141234;-76
2022/10/14 03:41:01;;;;;;;45.43;26.30;;;;;;;10.00;96.14;100750.62;5042784;58;1143233;-75
2022/10/14 03:46:07;;;;;;;38.70;23.63;;;;;;;9.91;96.20;100755.73;5132063;57;1143216;-77
2022/10/14 03:51:15;;;;;;;42.63;25.50;;;;;;;9.81;96.22;100758.16;5135180;57;1139168;-75
2022/10/14 03:56:21;;;;;;;42.87;24.33;;;;;;;9.83;97.11;100757.10;5182383;57;1139062;-75
2022/10/14 04:01:29;;;;;;;48.50;23.80;;;;;;;9.89;97.07;100755.84;5160621;57;1139045;-75
2022/10/14 04:06:43;;;;;;;44.13;23.93;;;;;;;9.93;97.10;100749.87;5069194;57;1138998;-75
2022/10/14 04:11:50;;;;;;;50.90;26.00;;;;;;;9.97;97.02;100748.67;5135154;56;1139270;-76
2022/10/14 04:16:57;;;;;;;43.55;26.20;;;;;;;9.97;97.24;100749.52;5229871;56;1139288;-76
2022/10/14 04:22:04;;;;;;;49.10;26.83;;;;;;;9.92;96.86;100744.21;4976572;58;1139079;-76
2022/10/14 04:27:10;;;;;;;39.90;24.20;;;;;;;9.89;97.31;100759.80;4971387;58;1139331;-76
2022/10/14 04:32:18;;;;;;;53.03;26.67;;;;;;;9.74;96.70;100747.20;5021439;57;1139205;-76
2022/10/14 04:37:24;;;;;;;70.50;43.10;;;;;;;9.76;97.04;100751.05;5018286;59;1139169;-76
2022/10/14 04:42:40;;;;;;;77.87;54.33;;;;;;;9.74;96.71;100743.72;4708154;62;1139018;-75
2022/10/14 04:47:48;;;;;;;87.37;54.73;;;;;;;9.69;97.20;100741.38;4667500;62;1139140;-76
2022/10/14 04:52:56;;;;;;;73.00;43.13;;;;;;;9.65;97.09;100733.30;4832490;60;1137174;-76
2022/10/14 04:58:02;;;;;;;73.93;39.70;;;;;;;9.54;97.18;100731.90;4796760;61;1137146;-75
2022/10/14 05:03:09;;;;;;;73.67;33.90;;;;;;;9.52;97.81;100729.84;4775908;61;1141369;-76
2022/10/14 05:08:16;;;;;;;64.53;30.87;;;;;;;9.52;97.64;100724.55;4705975;61;1141578;-75
2022/10/14 05:13:23;;;;;;;63.55;30.55;;;;;;;9.58;97.78;100733.38;4848368;59;1141234;-75
2022/10/14 05:18:31;;;;;;;72.37;33.43;;;;;;;9.61;97.69;100735.81;5091709;56;1141104;-75
2022/10/14 05:23:39;;;;;;;64.50;34.40;;;;;;;9.59;97.79;100733.75;5212008;56;1141121;-75
2022/10/14 05:28:45;;;;;;;58.30;29.43;;;;;;;9.55;97.83;100724.82;5222228;56;1141073;-76
2022/10/14 05:33:52;;;;;;;49.77;26.20;;;;;;;9.45;97.52;100724.63;5193366;57;1141130;-76
2022/10/14 05:39:00;;;;;;;49.07;28.60;;;;;;;9.39;97.64;100732.48;5159462;57;1141237;-76
2022/10/14 05:44:10;;;;;;;52.10;28.73;;;;;;;9.46;98.53;100724.53;5148685;57;1141083;-77
2022/10/14 05:49:16;;;;;;;64.47;33.47;;;;;;;9.50;99.27;100719.38;5127380;57;1141224;-76
2022/10/14 05:54:22;;;;;;;59.73;31.27;;;;;;;9.46;99.00;100713.97;5176731;56;1141065;-72
2022/10/14 05:59:32;;;;;;;49.80;27.40;;;;;;;9.48;99.22;100725.23;5141117;56;1141101;-73
2022/10/14 06:04:43;;;;;;;53.80;26.10;;;;;;;9.64;100.00;100726.33;5193864;56;1141149;-76
2022/10/14 06:09:47;;;;;;;53.37;27.43;;;;;;;9.83;100.00;100730.69;5173303;57;1143279;-75
2022/10/14 06:14:53;;;;;;;47.67;28.87;;;;;;;9.94;100.00;100745.77;5174641;57;1143342;-76
2022/10/14 06:19:59;;;;;;;48.60;26.77;;;;;;;10.01;100.00;100740.42;5117896;57;1143170;-76
2022/10/14 06:25:05;;;;;;;42.13;24.20;;;;;;;10.12;100.00;100734.36;5157797;57;1145286;-75
2022/10/14 06:30:14;;;;;;;51.07;27.10;;;;;;;10.12;100.00;100734.36;5181886;56;1145362;-75
2022/10/14 06:35:20;;;;;;;68.40;34.73;;;;;;;10.18;100.00;100736.57;5212487;56;1145266;-73
2022/10/14 06:40:26;;;;;;;282.10;215.90;;;;;;;10.23;100.00;100733.64;5206211;56;1145309;-73
2022/10/14 06:45:32;;;;;;;107.80;65.30;;;;;;;10.32;100.00;100731.63;5094910;57;1149640;-73
2022/10/14 06:50:38;;;;;;;42.93;26.00;;;;;;;10.55;100.00;100738.70;5011889;58;1147306;-74
2022/10/14 06:55:44;;;;;;;47.50;26.07;;;;;;;10.62;100.00;100743.91;5081801;58;1145363;-74
2022/10/14 07:00:49;;;;;;;50.80;25.30;;;;;;;10.87;100.00;100744.23;5073168;57;1145295;-74
2022/10/14 07:05:56;;;;;;;46.40;26.77;;;;;;;11.00;100.00;100745.51;5129021;57;1145570;-74
2022/10/14 07:11:02;;;;;;;53.17;27.20;;;;;;;11.10;100.00;100756.59;5189591;57;1145297;-73
2022/10/14 07:16:07;;;;;;;42.63;23.63;;;;;;;11.12;100.00;100750.70;5208146;56;1145341;-73
2022/10/14 07:21:14;;;;;;;46.57;27.77;;;;;;;11.13;100.00;100759.02;5247630;55;1145329;-73
2022/10/14 07:26:21;;;;;;;54.77;29.40;;;;;;;11.12;100.00;100753.35;5237068;55;1145272;-74
2022/10/14 07:31:28;;;;;;;50.70;28.50;;;;;;;11.17;100.00;100741.91;5233012;55;1145546;-73
2022/10/14 07:36:36;;;;;;;40.10;25.67;;;;;;;11.23;100.00;100744.11;5228392;56;1145534;-74
2022/10/14 07:41:42;;;;;;;37.20;22.27;;;;;;;11.40;100.00;100737.98;5228398;56;1145389;-74
2022/10/14 07:46:48;;;;;;;41.60;24.87;;;;;;;11.65;100.00;100744.38;5228652;56;1145242;-74
2022/10/14 07:51:53;;;;;;;45.17;28.30;;;;;;;11.92;100.00;100738.73;5228480;56;1145510;-74
2022/10/14 07:56:59;;;;;;;45.40;26.57;;;;;;;12.24;100.00;100729.03;5228593;56;1145268;-73
2022/10/14 08:02:05;;;;;;;41.90;26.53;;;;;;;12.59;100.00;100727.96;5180545;56;1143133;-73
2022/10/14 08:07:13;;;;;;;46.50;25.10;;;;;;;12.95;100.00;100733.35;5228872;56;1143355;-73
2022/10/14 08:12:18;;;;;;;41.50;23.23;;;;;;;13.16;100.00;100741.33;5219864;56;1143082;-74
2022/10/14 08:17:24;;;;;;;48.40;25.30;;;;;;;13.30;100.00;100741.84;5115263;56;1143306;-73
2022/10/14 08:22:30;;;;;;;37.08;23.50;;;;;;;13.37;100.00;100739.52;5110398;58;1143141;-74
2022/10/14 08:27:36;;;;;;;40.40;22.97;;;;;;;13.43;100.00;100740.81;5110236;57;1143171;-74
2022/10/14 08:32:42;;;;;;;39.07;24.87;;;;;;;13.55;100.00;100735.77;5109358;58;1143309;-74
2022/10/14 08:37:59;;;;;;;38.70;22.27;;;;;;;14.00;100.00;100728.23;5109987;58;1143196;-73
2022/10/14 08:43:09;;;;;;;42.00;22.93;;;;;;;14.40;100.00;100726.87;5085855;58;1143110;-74
2022/10/14 08:48:22;;;;;;;34.63;21.37;;;;;;;14.73;100.00;100729.63;5023890;58;1143120;-74
2022/10/14 08:53:42;;;;;;;37.13;21.47;;;;;;;14.87;100.00;100723.02;5056212;58;1143258;-74
2022/10/14 08:58:51;;;;;;;31.73;19.13;;;;;;;14.90;100.00;100721.41;5062143;57;1141378;-74
2022/10/14 09:04:10;;;;;;;32.48;21.20;;;;;;;14.83;99.79;100717.12;5054718;58;1145114;-75
2022/10/14 09:09:30;;;;;;;34.73;17.77;;;;;;;14.95;100.00;100713.36;5065856;58;1143130;-74
2022/10/14 09:14:45;;;;;;;33.53;17.80;;;;;;;15.13;99.17;100712.11;5092938;57;1145140;-74
2022/10/14 09:19:57;;;;;;;27.40;17.63;;;;;;;15.22;97.28;100718.41;5062305;57;1143428;-74
2022/10/14 09:25:05;;;;;;;29.70;16.97;;;;;;;15.34;96.65;100720.77;5210144;56;1143189;-74
2022/10/14 09:30:15;;;;;;;48.50;29.17;;;;;;;15.40;95.31;100718.02;5188007;56;1143251;-75
2022/10/14 09:35:36;;;;;;;41.90;21.53;;;;;;;15.40;94.73;100724.69;5217766;56;1143726;-74
2022/10/14 09:40:45;;;;;;;31.30;21.13;;;;;;;15.49;94.10;100728.64;5160320;57;1143222;-76
2022/10/14 09:46:09;;;;;;;33.83;19.40;;;;;;;15.58;93.10;100733.64;5087026;57;1143161;-75
2022/10/14 09:51:26;;;;;;;29.47;18.67;;;;;;;15.65;91.63;100727.21;5021111;58;1143155;-77
2022/10/14 09:56:39;;;;;;;33.87;19.40;;;;;;;15.72;92.03;100735.83;5061216;57;1143113;-75
2022/10/14 10:01:51;;;;;;;35.03;19.20;;;;;;;15.86;91.56;100733.66;5110035;56;1143173;-75
2022/10/14 10:06:59;;;;;;;35.57;16.80;;;;;;;15.96;90.20;100730.44;5169726;56;1143357;-76
2022/10/14 10:12:32;;;;;;;42.37;19.23;;;;;;;16.12;87.35;100738.64;5147635;56;1143196;-74
2022/10/14 10:17:40;;;;;;;33.43;18.67;;;;;;;16.07;87.97;100727.06;5176339;56;1141180;-74
2022/10/14 10:22:47;;;;;;;28.07;17.83;;;;;;;16.03;88.34;100728.87;5113320;56;1141089;-76
2022/10/14 10:27:58;;;;;;;25.87;16.17;;;;;;;16.00;88.49;100716.67;5162629;56;1140909;-76
2022/10/14 10:33:17;;;;;;;24.17;12.67;;;;;;;16.18;87.05;100704.70;5162418;56;1141072;-76
2022/10/14 10:38:50;;;;;;;21.85;13.60;;;;;;;16.35;87.29;100699.00;5162280;57;1141106;-77
2022/10/14 10:44:40;;;;;;;26.80;14.63;;;;;;;16.39;85.51;100697.22;5156039;57;1141146;-76
2022/10/14 10:50:08;;;;;;;16.93;11.03;;;;;;;16.40;85.41;100692.23;4934644;58;1143201;-77
2022/10/14 10:55:51;;;;;;;20.73;12.83;;;;;;;16.58;85.36;100706.92;5178946;56;1143158;-76
2022/10/14 11:01:24;;;;;;;21.20;14.87;;;;;;;16.60;83.05;100696.09;5223240;56;1143260;-75
2022/10/14 11:12:16;;;;;;;26.90;15.33;;;;;;;16.64;83.75;100693.49;5099576;56;976285;-75
2022/10/14 11:17:30;;;;;;;;;;;;;;;16.59;83.93;100679.72;5213960;55;1141260;-76
2022/10/14 11:22:53;;;;;;;22.73;12.00;;;;;;;16.53;84.49;100680.66;5163313;56;976282;-75
2022/10/14 11:28:24;;;;;;;25.37;11.47;;;;;;;16.62;84.42;100675.41;5283010;55;1138908;-75
2022/10/14 11:33:58;;;;;;;24.77;12.23;;;;;;;16.69;84.53;100667.98;5216198;56;1141063;-76
2022/10/14 11:39:35;;;;;;;18.60;11.17;;;;;;;16.79;83.98;100667.91;5097833;57;1141113;-75
2022/10/14 11:44:44;;;;;;;19.07;11.37;;;;;;;16.91;83.39;100663.98;5170976;56;1143350;-76
2022/10/14 11:50:03;;;;;;;19.83;10.47;;;;;;;17.15;84.58;100659.28;5216026;56;1143174;-77
2022/10/14 11:55:23;;;;;;;20.60;11.70;;;;;;;17.30;82.65;100655.03;5214994;56;1143152;-76
2022/10/14 12:00:31;;;;;;;22.13;10.60;;;;;;;17.34;81.01;100651.55;5186543;56;1143141;-77
2022/10/14 12:06:19;;;;;;;21.80;9.73;;;;;;;17.21;81.87;100657.33;5218160;56;1143151;-75
2022/10/14 12:11:37;;;;;;;23.20;10.17;;;;;;;17.05;81.90;100652.72;5218005;56;1141270;-77
2022/10/14 12:16:48;;;;;;;21.40;9.73;;;;;;;16.86;82.19;100652.42;5238068;55;1143203;-75
2022/10/14 12:22:21;;;;;;;14.80;9.20;;;;;;;16.88;83.30;100649.59;5307977;55;1141056;-76
2022/10/14 12:27:28;;;;;;;;;;;;;;;17.01;84.09;100651.84;5311903;55;1141055;-76
2022/10/14 12:32:34;;;;;;;21.10;9.97;;;;;;;17.04;82.64;100652.88;5310813;55;976242;-75
2022/10/14 12:37:50;;;;;;;17.35;10.28;;;;;;;17.02;82.66;100648.19;5307808;55;1139066;-76
2022/10/14 12:43:06;;;;;;;19.33;10.13;;;;;;;17.01;82.42;100647.34;5307937;55;1143153;-77
2022/10/14 12:48:28;;;;;;;23.13;11.00;;;;;;;16.98;82.31;100642.31;5300507;55;1141063;-76
2022/10/14 12:53:37;;;;;;;18.73;9.97;;;;;;;16.99;81.81;100636.47;5238580;55;1140955;-75
2022/10/14 12:59:02;;;;;;;17.97;9.63;;;;;;;16.94;82.46;100634.29;5201031;55;1139053;-75
2022/10/14 13:04:17;;;;;;;25.47;12.33;;;;;;;16.92;82.95;100631.42;5170379;56;1139007;-77
2022/10/14 13:09:35;;;;;;;26.17;11.43;;;;;;;16.98;82.69;100620.09;5200887;56;1141363;-76
2022/10/14 13:15:30;;;;;;;33.23;13.43;;;;;;;16.99;83.03;100620.44;5174436;56;1138983;-76
2022/10/14 13:20:47;;;;;;;25.30;13.50;;;;;;;17.01;83.44;100621.12;5208602;56;1143152;-74
2022/10/14 13:25:54;;;;;;;37.80;19.80;;;;;;;16.99;82.39;100617.27;5228399;56;1143164;-75
2022/10/14 13:31:18;;;;;;;22.20;11.87;;;;;;;16.94;82.98;100620.93;5209962;56;1143256;-74
2022/10/14 13:36:32;;;;;;;23.22;11.88;;;;;;;16.93;83.27;100615.25;5018040;57;1143241;-76
2022/10/14 13:41:39;;;;;;;24.63;10.93;;;;;;;16.98;83.08;100612.92;5021174;57;1143411;-77
2022/10/14 13:46:48;;;;;;;30.23;14.53;;;;;;;17.09;83.78;100608.66;5079641;57;1143198;-75
2022/10/14 13:52:09;;;;;;;31.17;12.60;;;;;;;17.36;83.22;100606.28;5135517;57;1143198;-77
2022/10/14 13:57:14;;;;;;;24.35;12.75;;;;;;;17.46;82.39;100601.62;5157060;57;1143318;-76
2022/10/14 14:02:23;;;;;;;16.40;9.77;;;;;;;17.49;82.44;100597.80;5154780;55;1143125;-75
2022/10/14 14:07:34;;;;;;;31.20;12.93;;;;;;;17.41;81.16;100608.48;5127886;57;1141041;-76
2022/10/14 14:12:43;;;;;;;26.83;13.70;;;;;;;17.22;82.00;100604.21;5130551;57;1143217;-77
2022/10/14 14:17:49;;;;;;;20.77;12.60;;;;;;;17.06;82.37;100600.12;5081542;57;1143170;-75
2022/10/14 14:22:58;;;;;;;19.95;11.85;;;;;;;16.94;82.72;100591.55;5010405;58;1143213;-75
2022/10/14 14:28:06;;;;;;;24.27;13.23;;;;;;;16.86;83.23;100593.66;5160064;57;1143320;-75
2022/10/14 14:33:17;;;;;;;22.02;11.95;;;;;;;16.79;83.57;100599.30;5161738;57;1143187;-75
2022/10/14 14:38:29;;;;;;;20.37;12.67;;;;;;;16.75;84.05;100601.09;5099340;57;1143130;-76
2022/10/14 14:43:36;;;;;;;32.10;13.18;;;;;;;16.74;84.32;100602.93;5111566;57;1140973;-78
2022/10/14 14:48:44;;;;;;;23.27;12.97;;;;;;;16.78;84.49;100596.78;5162153;57;1141418;-76
2022/10/14 14:53:54;;;;;;;36.60;19.70;;;;;;;16.90;84.71;100596.02;5155855;57;1141231;-77
2022/10/14 14:59:10;;;;;;;24.60;14.00;;;;;;;16.98;85.24;100598.72;5104242;57;1141297;-77
2022/10/14 15:04:20;;;;;;;25.63;13.17;;;;;;;16.92;84.58;100600.20;5086693;57;1141163;-76
2022/10/14 15:09:49;;;;;;;37.30;20.30;;;;;;;16.84;84.59;100586.28;5075820;58;1141129;-78
2022/10/14 15:14:58;;;;;;;54.63;30.60;;;;;;;16.75;84.85;100584.58;5103739;57;1141127;-76
2022/10/14 15:20:29;;;;;;;38.17;24.30;;;;;;;16.66;84.96;100585.99;5161192;57;1138955;-75
2022/10/14 15:25:34;;;;;;;25.83;15.13;;;;;;;16.61;85.44;100589.13;5202419;55;1143364;-78
2022/10/14 15:30:45;;;;;;;28.90;16.30;;;;;;;16.57;85.64;100587.75;5317403;55;1143382;-75
2022/10/14 15:36:02;;;;;;;41.17;20.00;;;;;;;16.56;85.98;100593.24;5229571;55;1143185;-74
2022/10/14 15:41:10;;;;;;;45.70;23.10;;;;;;;16.51;85.94;100591.03;5228550;56;1143245;-75
2022/10/14 15:51:41;;;;;;;55.07;20.03;;;;;;;16.40;86.40;100585.45;5142925;56;1143480;-75
2022/10/14 15:56:48;;;;;;;45.33;19.80;;;;;;;16.32;86.74;100580.06;5108000;57;1143158;-76
2022/10/14 16:01:54;;;;;;;35.87;18.77;;;;;;;16.29;86.90;100580.86;5138669;57;1143182;-75
2022/10/14 16:06:59;;;;;;;32.07;17.93;;;;;;;16.28;86.97;100583.19;5138283;57;1143331;-78
2022/10/14 16:12:05;;;;;;;42.07;22.50;;;;;;;16.22;87.03;100590.45;5138301;57;1143452;-76
2022/10/14 16:17:11;;;;;;;55.87;26.27;;;;;;;16.16;87.14;100583.92;5222561;55;1143181;-77
2022/10/14 16:22:16;;;;;;;47.23;28.50;;;;;;;16.07;87.38;100575.48;5153597;56;1143197;-78
2022/10/14 16:27:23;;;;;;;86.47;49.10;;;;;;;16.05;87.44;100580.13;4994646;58;1143137;-77
2022/10/14 16:32:28;;;;;;;84.73;44.67;;;;;;;16.06;87.57;100577.31;5143102;56;1143152;-76
2022/10/14 16:37:37;;;;;;;57.63;29.43;;;;;;;16.10;88.01;100576.52;5142913;56;1143343;-78
2022/10/14 16:42:42;;;;;;;50.40;31.03;;;;;;;16.13;88.02;100582.39;5161560;56;1143170;-77
2022/10/14 16:47:48;;;;;;;48.20;25.63;;;;;;;16.09;87.83;100578.84;5228895;56;1143167;-76
2022/10/14 16:58:17;;;;;;;35.97;20.87;;;;;;;15.94;87.86;100571.88;5122745;57;1143139;-76
2022/10/14 17:03:23;;;;;;;44.40;24.77;;;;;;;15.87;88.03;100564.15;5044218;58;1143227;-78
2022/10/14 17:08:29;;;;;;;36.67;21.03;;;;;;;15.80;88.25;100559.91;5046458;57;1143189;-75
2022/10/14 17:13:35;;;;;;;62.67;32.60;;;;;;;15.72;88.56;100561.66;5126436;57;1143093;-75
2022/10/14 17:18:42;;;;;;;46.37;25.00;;;;;;;15.70;88.94;100555.14;5137333;57;1143198;-75
2022/10/14 17:23:49;;;;;;;54.77;28.40;;;;;;;15.71;89.26;100558.65;5134546;57;1143114;-75
2022/10/14 17:28:55;;;;;;;44.23;24.07;;;;;;;15.72;89.08;100557.17;5142936;57;1143179;-78
2022/10/14 17:34:01;;;;;;;42.60;23.60;;;;;;;15.74;89.35;100547.16;5142802;57;1140348;-77
2022/10/14 17:39:11;;;;;;;55.57;32.77;;;;;;;15.74;89.50;100545.83;5142668;57;1141364;-78
2022/10/14 17:44:14;;;;;;;56.63;30.87;;;;;;;15.75;89.51;100542.17;5127651;57;1141013;-76
2022/10/14 17:49:20;;;;;;;55.73;27.73;;;;;;;15.76;89.82;100542.52;5142764;57;1141112;-78
2022/10/14 17:54:25;;;;;;;43.42;24.88;;;;;;;15.71;89.62;100538.16;5142868;57;1141091;-75
2022/10/14 17:59:32;;;;;;;38.87;23.57;;;;;;;15.64;89.87;100536.23;5142536;57;1141080;-75
2022/10/14 18:04:37;;;;;;;35.63;20.63;;;;;;;15.59;89.89;100535.84;5131715;57;1141295;-73
2022/10/14 18:09:42;;;;;;;36.00;19.93;;;;;;;15.55;90.06;100535.32;5108183;56;1141145;-75
2022/10/14 18:14:48;;;;;;;45.13;26.60;;;;;;;15.52;90.29;100530.25;5110797;56;1141087;-75
2022/10/14 18:19:55;;;;;;;74.43;41.67;;;;;;;15.46;90.58;100524.17;5135772;56;1141096;-75
2022/10/14 18:25:03;;;;;;;72.27;40.23;;;;;;;15.37;91.08;100521.93;5133222;57;1141285;-78
2022/10/14 18:30:10;;;;;;;108.77;65.70;;;;;;;15.31;90.99;100520.34;5190549;56;1141086;-77
2022/10/14 18:35:16;;;;;;;47.47;29.23;;;;;;;15.26;91.21;100513.31;5222389;56;1143356;-77
2022/10/14 18:40:21;;;;;;;55.77;29.70;;;;;;;15.14;92.08;100510.83;5196025;56;1141169;-74
2022/10/14 18:45:27;;;;;;;46.77;28.70;;;;;;;15.02;92.81;100497.86;5219572;56;1141396;-74
2022/10/14 18:50:33;;;;;;;50.33;26.17;;;;;;;14.96;92.83;100505.13;5174766;56;1141129;-75
2022/10/14 18:55:39;;;;;;;43.50;26.87;;;;;;;14.94;93.35;100507.94;5156711;56;1141079;-75
2022/10/14 19:00:45;;;;;;;39.83;25.97;;;;;;;14.94;93.35;100509.27;5200110;56;1141057;-77
2022/10/14 19:05:52;;;;;;;74.60;36.50;;;;;;;14.96;93.43;100507.80;5182904;56;1138921;-75
2022/10/14 19:11:19;;;;;;;62.60;32.23;;;;;;;14.95;93.28;100520.77;5156181;57;1138988;-75
2022/10/14 19:16:25;;;;;;;45.70;27.53;;;;;;;14.95;93.23;100522.09;5190034;56;1143077;-76
2022/10/14 19:21:32;;;;;;;41.40;23.07;;;;;;;14.95;93.13;100514.10;5241068;56;1143100;-75
2022/10/14 19:26:43;;;;;;;42.67;24.23;;;;;;;14.99;93.32;100514.13;5163470;56;1143415;-75
2022/10/14 19:31:53;;;;;;;42.17;23.50;;;;;;;15.01;93.68;100506.34;5149949;57;1143134;-76
2022/10/14 19:37:01;;;;;;;42.38;26.55;;;;;;;15.03;93.52;100506.20;5150102;56;1143088;-76
2022/10/14 19:42:06;;;;;;;57.50;32.67;;;;;;;15.01;93.61;100494.85;5141505;56;1143396;-75
2022/10/14 19:47:13;;;;;;;54.13;30.30;;;;;;;14.97;93.19;100492.97;5066335;58;1143393;-74
2022/10/14 19:52:19;;;;;;;58.27;28.37;;;;;;;14.94;93.30;100493.29;5105984;56;1143094;-76
2022/10/14 19:57:25;;;;;;;55.97;27.83;;;;;;;14.93;93.57;100486.78;5082343;56;1143054;-76
2022/10/14 20:02:31;;;;;;;72.83;35.63;;;;;;;14.83;93.69;100491.29;5113045;56;1143110;-75
2022/10/14 20:07:36;;;;;;;83.83;42.50;;;;;;;14.74;93.92;100485.03;5208717;56;1143171;-76
2022/10/14 20:12:42;;;;;;;87.20;45.63;;;;;;;14.69;93.98;100485.95;5202153;56;1143068;-77
2022/10/14 20:17:48;;;;;;;69.63;38.77;;;;;;;14.68;94.22;100484.27;5045821;58;1143184;-76
2022/10/14 20:22:54;;;;;;;52.03;32.50;;;;;;;14.72;94.53;100477.19;5158517;56;1143150;-75
2022/10/14 20:27:59;;;;;;;61.23;34.03;;;;;;;14.77;94.67;100476.76;5171625;56;1143195;-76
2022/10/14 20:33:05;;;;;;;58.00;31.97;;;;;;;14.80;94.73;100475.14;5182048;56;1143119;-76
2022/10/14 20:38:11;;;;;;;53.80;30.77;;;;;;;14.74;94.22;100484.55;5193900;56;1143098;-76
2022/10/14 20:43:17;;;;;;;63.67;31.30;;;;;;;14.61;93.97;100482.70;5169012;56;1143299;-75
2022/10/14 20:48:22;;;;;;;55.60;28.33;;;;;;;14.63;94.79;100478.57;5149158;56;1143102;-76
2022/10/14 20:53:29;;;;;;;54.57;30.87;;;;;;;14.70;94.89;100476.98;5188209;56;1143369;-76
2022/10/14 20:58:34;;;;;;;55.27;31.80;;;;;;;14.59;94.74;100475.84;5212864;56;1143064;-76
2022/10/14 21:03:42;;;;;;;64.55;37.90;;;;;;;14.63;95.54;100473.25;5213826;56;1143159;-76
2022/10/14 21:08:50;;;;;;;67.57;33.70;;;;;;;14.63;95.72;100478.08;5188521;56;1143191;-76
2022/10/14 21:13:59;;;;;;;47.57;30.00;;;;;;;14.68;95.48;100469.63;5046652;58;1143145;-75
2022/10/14 21:19:09;;;;;;;59.67;34.23;;;;;;;14.64;95.03;100464.28;5114571;56;1143205;-76
2022/10/14 21:24:17;;;;;;;55.33;33.30;;;;;;;14.60;95.14;100458.89;5070878;57;1143292;-77
2022/10/14 21:29:25;;;;;;;45.93;27.17;;;;;;;14.58;95.23;100456.87;5114403;57;1143662;-76
2022/10/14 21:34:32;;;;;;;42.03;27.57;;;;;;;14.52;95.20;100452.11;5168607;56;1143319;-76
2022/10/14 21:39:37;;;;;;;49.27;28.60;;;;;;;14.47;95.21;100452.58;5193379;57;1143045;-75
2022/10/14 21:44:43;;;;;;;49.60;31.60;;;;;;;14.41;95.38;100443.34;5192313;56;1143169;-76
2022/10/14 21:49:49;;;;;;;54.37;33.53;;;;;;;14.37;95.92;100435.75;5193401;56;1143573;-76
2022/10/14 21:54:55;;;;;;;56.77;36.10;;;;;;;14.29;96.09;100434.32;5193621;57;1141062;-76
2022/10/14 22:00:01;;;;;;;48.27;30.37;;;;;;;14.23;96.18;100431.73;5160941;57;1141097;-77
2022/10/14 22:05:09;;;;;;;50.00;31.33;;;;;;;14.18;96.16;100424.70;4990247;58;1141037;-76
2022/10/14 22:15:45;;;;;;;57.83;34.73;;;;;;;14.11;96.70;100420.92;5050883;57;1141054;-74
2022/10/14 22:21:03;;;;;;;59.75;33.30;;;;;;;14.12;96.80;100420.44;5043214;58;1141154;-76
2022/10/14 22:26:13;;;;;;;64.97;36.43;;;;;;;14.10;96.71;100413.92;5037779;58;1141067;-75
2022/10/14 22:31:21;;;;;;;82.23;40.43;;;;;;;14.13;96.90;100414.14;5229362;56;1141326;-76
2022/10/14 22:36:29;;;;;;;66.73;37.27;;;;;;;14.11;96.42;100412.11;5229052;56;1141108;-76
2022/10/14 22:41:35;;;;;;;72.80;36.13;;;;;;;14.07;96.29;100414.20;5229319;56;1138982;-76
2022/10/14 22:46:41;;;;;;;70.20;38.30;;;;;;;14.10;96.79;100409.94;5143389;56;1139136;-76
2022/10/14 22:51:47;;;;;;;64.93;35.87;;;;;;;14.13;96.80;100399.02;5143986;56;1143214;-75
2022/10/14 22:56:53;;;;;;;59.15;34.40;;;;;;;14.04;96.52;100395.91;5220388;56;1143067;-76
2022/10/14 23:01:59;;;;;;;66.07;35.97;;;;;;;13.96;96.60;100389.96;5230360;55;1143258;-75
2022/10/14 23:07:04;;;;;;;55.83;33.53;;;;;;;13.91;96.46;100391.37;5143372;57;1143122;-76
2022/10/14 23:12:10;;;;;;;62.27;35.23;;;;;;;13.85;96.57;100376.84;5143197;57;1143075;-76
2022/10/14 23:17:16;;;;;;;54.10;34.43;;;;;;;13.78;96.68;100370.90;5192732;56;1143150;-75
2022/10/14 23:22:22;;;;;;;64.93;35.27;;;;;;;13.66;96.86;100375.55;5151908;56;1143164;-77